Thursday, February 22, 2018, 12:04 PM EST
Back to Local

KAVP, Wilkes-barre/scranton International

Location: Pittston, PA, United States Lat: 41.333
Local Time: 12:04 PM EST (17:04 GMT) Lon: -75.733
Time Zone: US/Eastern Elev: 961 ft

Show me the last for .
Show Decoded

2018-02-22 11:35 METAR KAVP 221635Z 03006KT 4SM -RA BR SCT006 BKN016 OVC046 03/03 A3055 RMK AO2
                 P0001 T00330028 =
2018-02-22 10:54 METAR KAVP 221554Z 03006KT 5SM -RA BR OVC008 03/02 A3057 RMK AO2 SLP358 P0003
                 T00330022 =
2018-02-22 10:07 METAR KAVP 221507Z 03005KT 4SM -RA BR OVC006 03/02 A3060 RMK AO2 P0003 T00280022
                 =
2018-02-22 09:54 METAR KAVP 221454Z 02004KT 2SM R04/2000VP6000FT RA BR BKN006 BKN018 OVC050 03/02
                 A3060 RMK AO2 SLP368 P0006 60015 T00280022 58002 =
2018-02-22 09:46 METAR KAVP 221446Z VRB03KT 2 1/2SM RA BR FEW006 BKN010 OVC050 03/02 A3059 RMK
                 AO2 P0004 T00280022 =
2018-02-22 09:40 METAR KAVP 221440Z 07004KT 4SM RA BR SCT008 BKN012 OVC050 03/02 A3059 RMK AO2
                 P0002 T00280022 =
2018-02-22 09:28 METAR KAVP 221428Z 02004KT 5SM -RA BR FEW007 SCT012 OVC055 03/02 A3062 RMK AO2
                 P0002 T00280022 =
2018-02-22 08:54 METAR KAVP 221354Z 00000KT 5SM -RA BR SCT009 BKN014 OVC033 03/02 A3060 RMK AO2
                 SLP369 P0003 T00280022 =
2018-02-22 08:46 METAR KAVP 221346Z 35003KT 6SM -RA BR FEW004 SCT008 OVC014 02/02 A3061 RMK AO2
                 P0003 T00220017 =
2018-02-22 08:37 METAR KAVP 221337Z 35004KT 5SM -RA BR FEW005 OVC009 02/02 A3061 RMK AO2 P0003
                 T00220017 =
2018-02-22 08:16 METAR KAVP 221316Z 31004KT 3SM -RA BR FEW007 OVC012 02/02 A3061 RMK AO2 P0002
                 T00220022 =
2018-02-22 08:07 METAR KAVP 221307Z 32004KT 2 1/2SM -RA BR BKN012 BKN049 OVC055 02/02 A3060 RMK
                 AO2 P0002 T00220017 =
2018-02-22 07:58 METAR KAVP 221258Z 29005KT 3SM -RA BR BKN014 OVC055 02/02 A3060 =
2018-02-22 07:54 METAR KAVP 221254Z 29005KT 4SM -RA BR SCT016 OVC055 03/02 A3060 RMK AO2 SLP368
                 P0006 T00280017 =
2018-02-22 06:54 METAR KAVP 221154Z 02006KT 10SM -RA OVC060 03/01 A3055 RMK AO2 SLP348 P0002
                 60002 70003 T00280011 10050 20028 53004 =
2018-02-22 06:10 METAR KAVP 221110Z 01007KT 8SM -RA SCT017 OVC055 03/01 A3056 RMK AO2 P0001
                 T00330006 =
2018-02-22 05:54 METAR KAVP 221054Z 02007KT 8SM -RA BKN017 OVC055 03/01 A3055 RMK AO2 RAB49
                 SLP349 P0000 T00330006 =
2018-02-22 04:54 METAR KAVP 220954Z 03007KT 10SM OVC055 04/01 A3051 RMK AO2 SLP333 T00390006 =
2018-02-22 03:54 METAR KAVP 220854Z 01008KT 10SM OVC050 04/01 A3054 RMK AO2 SLP339 60000
                 T00390006 53004 =
2018-02-22 02:54 METAR KAVP 220754Z 03010KT 10SM OVC060 04/01 A3052 RMK AO2 SLP335 T00440006 =
2018-02-22 01:54 METAR KAVP 220654Z 02009KT 10SM BKN050 OVC090 04/01 A3053 RMK AO2 RAB29E42
                 SLP337 P0000 T00440006 =
2018-02-22 00:54 METAR KAVP 220554Z 03007KT 10SM FEW020 SCT050 OVC110 05/02 A3052 RMK AO2 RAE09
                 SLP334 P0000 60001 T00500017 10094 20050 53011 =
2018-02-21 23:54 METAR KAVP 220454Z 01007KT 10SM -RA FEW018 FEW060 OVC110 05/02 A3051 RMK AO2
                 RAB46 SLP329 P0000 T00500022 402440050 =
2018-02-21 22:54 METAR KAVP 220354Z 35007KT 10SM SCT017 BKN120 06/03 A3049 RMK AO2 SLP324
                 T00560028 =
2018-02-21 22:51 METAR KAVP 220351Z 34008KT 10SM SCT017 BKN120 06/03 A3049 RMK AO2 =
2018-02-21 21:54 METAR KAVP 220254Z 35008KT 10SM BKN016 06/03 A3047 RMK AO2 SLP319 60001
                 T00610033 51016 =
2018-02-21 21:44 METAR KAVP 220244Z 34009KT 10SM BKN016 BKN055 06/04 A3047 RMK AO2 T00610039 =
2018-02-21 20:54 METAR KAVP 220154Z 36007KT 10SM FEW033 OVC055 07/04 A3047 RMK AO2 RAB10E26
                 SLP318 P0000 T00720044 =
2018-02-21 20:13 METAR KAVP 220113Z 34008KT 10SM -RA FEW015 SCT029 OVC055 08/06 A3045 RMK AO2
                 RAB10 P0000 T00780056 =
2018-02-21 19:54 METAR KAVP 220054Z 34011KT 10SM BKN016 OVC029 08/06 A3045 RMK AO2 RAE54 SLP313
                 P0001 T00780056 =
2018-02-21 18:54 METAR KAVP 212354Z 33010KT 10SM -RA OVC019 09/07 A3043 RMK AO2 RAB27 SLP304
                 P0000 60000 T00940067 10244 20094 51067 =
2018-02-21 17:54 METAR KAVP 212254Z 34014KT 10SM OVC021 12/08 A3037 RMK AO2 PK WND 36028/2223
                 RAE13 SLP284 P0000 T01170078 =
2018-02-21 17:10 METAR KAVP 212210Z 33011G16KT 10SM -RA BKN024 BKN036 OVC046 15/11 A3032 RMK AO2
                 P0000 T01500106 =
2018-02-21 16:54 METAR KAVP 212154Z VRB03KT 10SM -RA FEW025 SCT036 OVC046 16/11 A3031 RMK AO2 PK
                 WND 34033/2117 WSHFT 2115 RAB41 SLP261 P0000 T01560111 =
2018-02-21 16:35 METAR KAVP 212135Z 36013G26KT 10SM BKN047 OVC060 16/11 A3029 RMK AO2 PK WND
                 34033/2117 WSHFT 2115 T01610111 =
2018-02-21 15:54 METAR KAVP 212054Z 26008KT 10SM OVC060 23/13 A3022 RMK AO2 SLP229 T02280133
                 53006 =
2018-02-21 14:54 METAR KAVP 211954Z 25007KT 10SM FEW055 SCT070 OVC100 23/13 A3020 RMK AO2 SLP223
                 T02330133 =
2018-02-21 13:54 METAR KAVP 211854Z 22013G22KT 10SM CLR 24/13 A3019 RMK AO2 SLP219 T02390128 =
2018-02-21 12:54 METAR KAVP 211754Z 24012KT 10SM SCT080 23/13 A3020 RMK AO2 SLP222 T02330128
                 10233 20111 58014 =

Support USWX by starting your Amazon purchase here.